Wright Pat, Ohio
Current Conditions -  °F | °C
As of 10:58 AM on Friday 24 Oct 2014 (Local Time) from KFFO Reporting Station
Clear Clear  
Wind Chill: 52°   Ceiling: Unl
Heat Index: 52°   Visibility: 10mi
Dew Point: 44°   Wind: 5mph
Humidity: 75%   Direction: 200°SSW
Pressure: 30.12"   Gusts: NA
Location:  39.8169°N, 84.0506°W
Report Text: KFFO 241458Z AUTO 20004KT 10SM CLR 11/07 A3012 RMK AO2 SLP205 T01100067 50000
Loading
Personal Weather Stations






























Interactive Weather Map
Tropical Storm Tracking
New forecast layout! Learn more

10-Day Weather Forecast

Advertisements
Track Severe Weather on mobile